EHBKEHGG

Guest
Details From EHBK - Maastricht
To EHGG - Eelde
Flight Number -
Tags Generated
Created
Modified
Stats Distance 136 nm / 253 km
Max Altitude 0 ft / 0 m
Waypoints 2
Social Downloads 0
Likes 0
Share VATSIM

Download

Looking for another format? Having issues loading an existing format? Contact us
Advertisement - Login to hide

Notes

Generated

Route

EHBK EHGG

ID Type Via Altitude Latitude Longitude Leg Dist Tot Dist Heading (true) Name
O EHBK APT - 0 ft / 0 m 50.90184˚ 5.76005˚ - 0 nm - -
O EHGG APT - 0 ft / 0 m 53.11738˚ 6.57688˚ 136 nm 136 nm 12° / 13° Eelde

Altitude Profile

Advertisement - Login to hide

EHBK

Details ICAO EHBK (MST)
Name Maastricht
Region Netherlands
Timezone Europe/Amsterdam (UTC+1.0)
Stats Elevation 375 ft / 114 m (AMSL)
Location 50.911305° 5.769639°
Runways 1
Magnetic Variation 1.517° E

METAR

EHBK 161525Z AUTO 25006KT 200V290 9999 FEW010 SCT013 BKN015 04/02 Q1014 TEMPO 6000 SHRA SCT020CB

Decode

TAF

TAF EHBK 161114Z 1612/1718 27008KT 9999 SCT025 TEMPO 1612/1705 7000 -SHRA SCT020CB BKN025 PROB40 TEMPO 1612/1702 4000 SHRAGS BKN012 SCT017CB BECMG 1617/1620 6000 BKN005 PROB30 TEMPO 1701/1710 1200 BR BKN001 BECMG 1702/1705 4000 BR BKN003 BECMG 1709/1712 7000 NSW BKN008 BECMG 1714/1717 9999 SCT015

Decode

Departure Runways

ID Width Length Bearing (true) Bearing (mag) Surface Threshold Offset Overrun Length
03 148 ft / 45 m 8,200 ft / 2,499 m 32.55° 31.03° Asphalt 820 ft / 250 m 0 ft / 0 m
21 148 ft / 45 m 8,200 ft / 2,499 m 212.56° 211.04° Asphalt 820 ft / 250 m 0 ft / 0 m

EHGG

Details ICAO EHGG (GRQ)
Name Eelde
Region Netherlands
Timezone Europe/Amsterdam (UTC+1.0)
Stats Elevation 17 ft / 5 m (AMSL)
Location 53.121033° 6.577073°
Runways 2
Magnetic Variation 1.691° E

METAR

EHGG 161525Z AUTO 31007KT 280V340 9999 -DZ FEW009 SCT033 BKN042 03/02 Q1010 TEMPO 4500 SHRAGS

Decode

TAF

TAF EHGG 161113Z 1612/1718 31010KT 9999 SCT025 TEMPO 1612/1624 4500 SHRA SHRAGS SCT020CB BKN025 BECMG 1615/1618 28006KT PROB30 1700/1708 4000 BR PROB30 TEMPO 1707/1712 7000 -SHRA SCT015CB BECMG 1715/1718 20010KT

Decode

Destination Runways

ID Width Length Bearing (true) Bearing (mag) Surface Threshold Offset Overrun Length
01 148 ft / 45 m 4,918 ft / 1,499 m 8.73° 7.04° Asphalt 0 ft / 0 m 0 ft / 0 m
05 148 ft / 45 m 8,185 ft / 2,495 m 51.78° 50.09° Asphalt 0 ft / 0 m 98 ft / 30 m
19 148 ft / 45 m 4,918 ft / 1,499 m 188.74° 187.05° Asphalt 0 ft / 0 m 0 ft / 0 m
23 148 ft / 45 m 8,185 ft / 2,495 m 231.81° 230.12° Asphalt 0 ft / 0 m 98 ft / 30 m

Approach Navaids

Runway Type Ident Frequency Range Bearing (true) Bearing (mag) Slope Elevation
23 Localiser GRO 109.90 MHz 18 nm / 33 km 231.79° 230.10° - 17 ft / 5 m (AMSL)
23 Glidescope GRO 109.90 MHz 15 nm / 28 km 232.94° 231.25° 3.00° 17 ft / 5 m (AMSL)
23 DME GRO 109.90 MHz 18 nm / 33 km - - - 17 ft / 5 m (AMSL)

Popular Alternatives